Airfield :
LOGIN :

Register | Disclaimer

   EN    FR    IT 

 










Legend :    VFR   Marginal VFR   IFR   Intensive IFR   Very Intensive IFR
Visi :
Ceiling :
>= 8 km
>= 3000ft
5 to 8 km
1000 to 3000 ft
1500m to 5 km
500 to 1000 ft
800 to 1500m
200 to 500 ft
< 800m
< 200 ft
Symbols :   Thunderstorms  Fog  Heavy snow  Heavy precipitations  Wind > 20 kt
SIGMETs :     Misc.  Thunderstorms  Icing  Turbulence  Mountain Waves  Volcanic Ashes







- Airport Elevation : 1300 ft
- IATA code : LIG
- Download approach charts


LFBL - Limoges

CURRENT METAR :
  • 181630Z AUTO 17009KT CAVOK 29/15 Q1011 NOSIG

EXPIRED METARs :
  • 181600Z AUTO 17007KT CAVOK 28/13 Q1011 NOSIG
  • 181530Z AUTO 17010KT CAVOK 29/15 Q1011 NOSIG
  • 181500Z AUTO 17010KT 130V200 CAVOK 29/15 Q1011 NOSIG
  • 181430Z AUTO 17012KT CAVOK 28/13 Q1011 NOSIG
  • 181400Z AUTO 16011KT 130V200 CAVOK 28/13 Q1011 NOSIG

TAF TAF LFBL
Valid from the 18 at 12:00 until the 19 at 12:00 UTC


181100Z 1812/1912 16012KT CAVOK
TEMPO 1819/1823 VRB03KT SCT090TCU
BECMG 1904/1906 25008KT
BECMG 1910/1912 BKN033
ATIS : +33 5 55 48 40 37
No reported NOTAMs for that airfield.



MET'MAP, your aeronautical weather chart ! - Copyright ORBIFLY December 2007 - Disclaimer

ORBIFLY MET'MAP TEAM :

Programming & Development : Alexandra Zaïnal
Concept & Development : Baudouin d'Aumeries
Co-Development & Prog : Marc-Olivier Méhu
Technical & hardware support : Manuel Goepfert

Contact : metmap@orbifly.com




SOURCES & CREDITS :

   NOAA